createdAt,value
2018-06-23T00:00:47.079Z,57.60
2018-06-23T00:03:15.163Z,57.70
2018-06-23T00:05:43.275Z,57.90
2018-06-23T00:08:11.410Z,57.90
2018-06-23T00:10:39.532Z,57.80
2018-06-23T00:13:07.640Z,58.10
2018-06-23T00:15:35.783Z,57.90
2018-06-23T00:18:03.948Z,58.20
2018-06-23T00:20:32.041Z,58.10
2018-06-23T00:23:00.195Z,58.20
2018-06-23T00:25:33.707Z,58.30
2018-06-23T00:28:01.843Z,58.10
2018-06-23T00:30:29.985Z,58.20
2018-06-23T00:32:58.103Z,58.30
2018-06-23T00:35:26.238Z,58.30
2018-06-23T00:37:54.327Z,58.20
2018-06-23T00:40:22.403Z,58.30
2018-06-23T00:42:50.499Z,58.30
2018-06-23T00:45:18.612Z,58.40
2018-06-23T00:47:46.735Z,58.30
2018-06-23T00:50:14.867Z,58.40
2018-06-23T00:52:43.020Z,58.30
2018-06-23T00:55:11.157Z,58.30
2018-06-23T00:57:39.328Z,58.20
2018-06-23T01:00:07.475Z,58.40
2018-06-23T01:02:35.623Z,58.20
2018-06-23T01:05:03.783Z,58.20
2018-06-23T01:07:31.984Z,58.00
2018-06-23T01:10:00.134Z,58.10
2018-06-23T01:12:28.403Z,58.10
2018-06-23T01:14:56.531Z,58.20
2018-06-23T01:17:24.666Z,58.30
2018-06-23T01:22:20.753Z,58.10
2018-06-23T01:24:48.876Z,58.20
2018-06-23T01:27:17.024Z,58.10
2018-06-23T01:29:45.146Z,58.20
2018-06-23T01:32:13.311Z,58.10
2018-06-23T01:34:41.472Z,58.00
2018-06-23T01:37:09.638Z,58.10
2018-06-23T01:39:37.799Z,58.10
2018-06-23T01:42:06.157Z,58.10
2018-06-23T01:44:34.358Z,58.10
2018-06-23T01:47:02.524Z,58.00
2018-06-23T01:49:30.695Z,58.10
2018-06-23T01:51:58.842Z,58.40
2018-06-23T01:54:27.518Z,58.50
2018-06-23T01:56:55.655Z,58.30
2018-06-23T01:59:23.786Z,58.50
2018-06-23T02:01:51.924Z,58.60
2018-06-23T02:04:20.079Z,58.90
2018-06-23T02:06:48.228Z,58.80
2018-06-23T02:09:16.376Z,59.10
2018-06-23T02:11:44.522Z,59.20
2018-06-23T02:14:17.915Z,59.40
2018-06-23T02:16:51.563Z,59.60
2018-06-23T02:19:25.097Z,59.80
2018-06-23T02:21:58.724Z,59.80
2018-06-23T02:24:32.367Z,59.70
2018-06-23T02:27:06.080Z,59.70
2018-06-23T02:29:39.771Z,59.80
2018-06-23T02:32:13.339Z,60.00
2018-06-23T02:34:46.969Z,60.20
2018-06-23T02:37:15.116Z,60.20
2018-06-23T02:39:43.377Z,60.50
2018-06-23T02:42:11.523Z,60.40
2018-06-23T02:44:39.692Z,60.40
2018-06-23T02:47:07.802Z,60.30
2018-06-23T02:49:35.978Z,60.40
2018-06-23T02:52:04.091Z,60.60
2018-06-23T02:54:32.237Z,60.70
2018-06-23T02:57:00.377Z,60.50
2018-06-23T02:59:28.880Z,60.80
2018-06-23T03:01:56.970Z,60.80
2018-06-23T03:04:25.067Z,61.30
2018-06-23T03:06:53.159Z,61.40
2018-06-23T03:09:21.269Z,62.00
2018-06-23T03:11:49.416Z,61.60
2018-06-23T03:14:17.532Z,61.90
2018-06-23T03:16:45.635Z,61.70
2018-06-23T03:19:13.745Z,61.60
2018-06-23T03:21:41.895Z,61.80
2018-06-23T03:24:10.023Z,61.60
2018-06-23T03:26:38.139Z,61.70
2018-06-23T03:29:06.260Z,62.00
2018-06-23T03:31:34.369Z,62.30
2018-06-23T03:34:02.500Z,62.10
2018-06-23T03:36:30.607Z,62.30
2018-06-23T03:38:58.715Z,62.40
2018-06-23T03:41:26.788Z,62.50
2018-06-23T03:46:22.893Z,62.40
2018-06-23T03:48:51.027Z,62.20
2018-06-23T03:51:19.119Z,62.10
2018-06-23T03:53:47.270Z,62.30
2018-06-23T03:56:15.377Z,62.50
2018-06-23T03:58:43.496Z,62.80
2018-06-23T04:01:11.619Z,62.80
2018-06-23T04:03:39.743Z,63.50
2018-06-23T04:06:07.842Z,64.30
2018-06-23T04:08:35.992Z,64.80
2018-06-23T04:11:04.384Z,64.40
2018-06-23T04:13:32.769Z,65.70
2018-06-23T04:16:01.156Z,65.70
2018-06-23T04:18:29.281Z,65.60
2018-06-23T04:20:57.412Z,66.10
2018-06-23T04:23:25.506Z,66.00
2018-06-23T04:25:53.707Z,66.50
2018-06-23T04:28:21.799Z,66.10
2018-06-23T04:30:50.013Z,66.10
2018-06-23T04:33:18.103Z,66.20
2018-06-23T04:35:46.217Z,66.40
2018-06-23T04:38:14.319Z,67.60
2018-06-23T04:40:42.449Z,66.70
2018-06-23T04:43:10.558Z,67.00
2018-06-23T04:45:38.671Z,67.40
2018-06-23T04:48:06.786Z,67.00
2018-06-23T04:50:34.947Z,67.10
2018-06-23T04:53:03.093Z,67.60
2018-06-23T04:55:31.262Z,67.10
2018-06-23T04:57:59.516Z,67.60
2018-06-23T05:00:27.675Z,68.20
2018-06-23T05:02:56.599Z,69.00
2018-06-23T05:05:25.493Z,68.70
2018-06-23T05:07:53.883Z,69.20
2018-06-23T05:10:22.024Z,69.20
2018-06-23T05:12:50.464Z,68.90
2018-06-23T05:15:18.616Z,69.10
2018-06-23T05:17:46.759Z,68.80
2018-06-23T05:20:14.994Z,68.50
2018-06-23T05:22:43.119Z,69.20
2018-06-23T05:25:11.299Z,68.60
2018-06-23T05:27:39.431Z,68.60
2018-06-23T05:30:07.561Z,68.50
2018-06-23T05:32:35.745Z,69.00
2018-06-23T05:35:03.923Z,68.50
2018-06-23T05:37:32.176Z,68.90
2018-06-23T05:40:00.639Z,68.70
2018-06-23T05:42:28.817Z,68.50
2018-06-23T05:44:56.967Z,68.70
2018-06-23T05:47:25.121Z,68.40
2018-06-23T05:49:53.354Z,68.20
2018-06-23T05:52:21.949Z,68.20
2018-06-23T05:54:50.064Z,68.30
2018-06-23T05:57:18.355Z,68.50
2018-06-23T06:02:21.108Z,67.50
2018-06-23T06:04:49.232Z,67.30
2018-06-23T06:07:17.340Z,67.00
2018-06-23T06:09:45.435Z,66.60
2018-06-23T06:12:13.533Z,66.80
2018-06-23T06:14:41.637Z,66.90
2018-06-23T06:17:27.999Z,66.40
2018-06-23T06:19:58.540Z,66.50
2018-06-23T06:22:27.869Z,66.30
2018-06-23T06:24:56.575Z,65.90
2018-06-23T06:27:24.677Z,65.30
2018-06-23T06:29:53.436Z,64.30
2018-06-23T06:32:21.943Z,64.40
2018-06-23T06:34:50.084Z,63.90
2018-06-23T06:37:18.187Z,62.50
2018-06-23T06:39:46.710Z,62.80
2018-06-23T06:42:14.981Z,62.10
2018-06-23T06:44:43.143Z,62.30
2018-06-23T06:47:12.576Z,61.00
2018-06-23T06:49:40.728Z,60.80
2018-06-23T06:52:08.864Z,60.80
2018-06-23T06:54:37.040Z,60.50
2018-06-23T06:57:05.197Z,60.80
2018-06-23T06:59:33.303Z,60.90
2018-06-23T07:02:01.427Z,60.80
2018-06-23T07:04:29.571Z,59.70
2018-06-23T07:06:57.692Z,60.20
2018-06-23T07:09:25.788Z,60.30
2018-06-23T07:11:53.873Z,60.70
2018-06-23T07:14:21.987Z,60.60
2018-06-23T07:16:50.102Z,60.40
2018-06-23T07:19:18.200Z,59.80
2018-06-23T07:21:46.312Z,59.00
2018-06-23T07:24:14.512Z,59.20
2018-06-23T07:26:42.551Z,59.40
2018-06-23T07:29:10.680Z,58.70
2018-06-23T07:31:38.821Z,58.30
2018-06-23T07:34:06.936Z,58.30
2018-06-23T07:36:35.041Z,58.10
2018-06-23T07:39:04.133Z,57.70
2018-06-23T07:41:32.300Z,57.30
2018-06-23T07:44:00.417Z,55.50
2018-06-23T07:46:28.576Z,55.60
2018-06-23T07:48:56.645Z,55.80
2018-06-23T07:51:24.732Z,54.60
2018-06-23T07:53:52.865Z,55.40
2018-06-23T07:56:21.016Z,54.40
2018-06-23T07:58:49.083Z,55.00
2018-06-23T08:01:17.171Z,54.60
2018-06-23T08:03:45.297Z,55.00
2018-06-23T08:06:13.496Z,54.00
2018-06-23T08:08:41.585Z,54.40
2018-06-23T08:11:09.701Z,53.70
2018-06-23T08:13:37.832Z,53.10
2018-06-23T08:16:06.577Z,53.40
2018-06-23T08:18:34.683Z,52.90
2018-06-23T08:21:02.784Z,52.80
2018-06-23T08:23:30.880Z,52.30
2018-06-23T08:25:58.995Z,51.30
2018-06-23T08:28:27.120Z,51.50
2018-06-23T08:30:55.215Z,50.90
2018-06-23T08:33:23.515Z,50.20
2018-06-23T08:35:51.719Z,50.30
2018-06-23T08:38:19.803Z,51.20
2018-06-23T08:40:47.898Z,49.90
2018-06-23T08:43:16.045Z,49.50
2018-06-23T08:45:44.165Z,51.00
2018-06-23T08:48:12.287Z,49.70
2018-06-23T08:50:40.438Z,48.90
2018-06-23T08:53:08.574Z,47.60
2018-06-23T08:55:36.760Z,48.60
2018-06-23T08:58:04.923Z,48.50
2018-06-23T09:00:33.068Z,47.30
2018-06-23T09:03:01.220Z,49.20
2018-06-23T09:05:29.364Z,47.60
2018-06-23T09:07:57.524Z,48.30
2018-06-23T09:10:25.672Z,47.10
2018-06-23T09:12:53.847Z,46.50
2018-06-23T09:15:22.020Z,47.20
2018-06-23T09:17:50.283Z,46.40
2018-06-23T09:20:18.439Z,45.80
2018-06-23T09:22:46.660Z,46.10
2018-06-23T09:25:14.799Z,45.50
2018-06-23T09:27:42.944Z,45.70
2018-06-23T09:30:11.075Z,46.00
2018-06-23T09:32:39.222Z,44.90
2018-06-23T09:35:07.383Z,45.40
2018-06-23T09:37:35.533Z,45.70
2018-06-23T09:40:03.668Z,44.80
2018-06-23T09:42:31.828Z,45.90
2018-06-23T09:45:00.096Z,46.00
2018-06-23T09:47:28.227Z,45.70
2018-06-23T09:49:56.415Z,45.60
2018-06-23T09:52:24.599Z,46.70
2018-06-23T09:54:52.755Z,46.90
2018-06-23T09:57:20.943Z,46.50
2018-06-23T09:59:49.078Z,45.70
2018-06-23T10:02:17.228Z,46.70
2018-06-23T10:04:45.369Z,45.80
2018-06-23T10:07:14.611Z,45.50
2018-06-23T10:09:42.727Z,45.50
2018-06-23T10:12:10.891Z,45.60
2018-06-23T10:14:39.060Z,45.50
2018-06-23T10:17:07.219Z,46.10
2018-06-23T10:19:35.371Z,45.30
2018-06-23T10:22:03.566Z,44.90
2018-06-23T10:24:31.752Z,45.40
2018-06-23T10:26:59.864Z,44.40
2018-06-23T10:29:28.095Z,44.70
2018-06-23T10:31:56.276Z,44.90
2018-06-23T10:34:24.448Z,44.50
2018-06-23T10:36:52.624Z,45.40
2018-06-23T10:39:20.761Z,43.20
2018-06-23T10:41:48.895Z,45.10
2018-06-23T10:44:17.044Z,43.70
2018-06-23T10:46:45.241Z,42.20
2018-06-23T10:49:13.412Z,42.80
2018-06-23T10:51:41.532Z,41.40
2018-06-23T10:54:09.627Z,42.50
2018-06-23T10:56:37.739Z,42.70
2018-06-23T10:59:05.931Z,42.20
2018-06-23T11:01:34.045Z,41.10
2018-06-23T11:04:02.145Z,41.00
2018-06-23T11:06:30.288Z,40.50
2018-06-23T11:08:58.446Z,39.80
2018-06-23T11:11:26.578Z,40.50
2018-06-23T11:13:54.699Z,39.70
2018-06-23T11:16:22.824Z,40.70
2018-06-23T11:18:50.954Z,40.60
2018-06-23T11:21:19.111Z,40.90
2018-06-23T11:23:47.247Z,40.80
2018-06-23T11:26:15.370Z,40.00
2018-06-23T11:28:43.507Z,40.90
2018-06-23T11:31:11.593Z,40.00
2018-06-23T11:33:39.695Z,41.10
2018-06-23T11:36:07.826Z,41.50
2018-06-23T11:38:36.024Z,40.80
2018-06-23T11:41:04.193Z,40.30
2018-06-23T11:43:32.430Z,41.20
2018-06-23T11:46:00.719Z,41.10
2018-06-23T11:48:28.867Z,41.10
2018-06-23T11:50:56.994Z,41.50
2018-06-23T11:53:25.267Z,41.70
2018-06-23T11:55:53.425Z,42.20
2018-06-23T11:58:21.573Z,41.50
2018-06-23T12:00:49.929Z,42.30
2018-06-23T12:03:18.245Z,41.30
2018-06-23T12:05:46.306Z,41.40
2018-06-23T12:08:14.409Z,41.70
2018-06-23T12:10:42.495Z,42.40
2018-06-23T12:13:10.656Z,41.40
2018-06-23T12:15:38.816Z,40.10
2018-06-23T12:18:06.898Z,41.40
2018-06-23T12:20:35.271Z,40.70
2018-06-23T12:23:03.394Z,39.80
2018-06-23T12:25:31.555Z,40.00
2018-06-23T12:27:59.678Z,38.50
2018-06-23T12:30:27.850Z,39.10
2018-06-23T12:32:55.903Z,38.70
2018-06-23T12:35:24.000Z,40.30
2018-06-23T12:37:52.086Z,40.00
2018-06-23T12:42:48.044Z,39.10
2018-06-23T12:45:16.208Z,40.10
2018-06-23T12:47:44.362Z,38.70
2018-06-23T12:50:12.515Z,39.10
2018-06-23T12:52:40.727Z,39.40
2018-06-23T12:55:08.895Z,40.40
2018-06-23T12:57:37.169Z,40.10
2018-06-23T13:00:06.346Z,39.70
2018-06-23T13:02:34.521Z,38.60
2018-06-23T13:05:02.752Z,39.20
2018-06-23T13:07:30.960Z,39.40
2018-06-23T13:09:59.143Z,38.00
2018-06-23T13:12:27.302Z,39.20
2018-06-23T13:14:55.463Z,39.40
2018-06-23T13:17:23.631Z,39.30
2018-06-23T13:19:51.819Z,39.90
2018-06-23T13:22:19.993Z,40.30
2018-06-23T13:24:48.109Z,40.80
2018-06-23T13:27:16.227Z,40.70
2018-06-23T13:29:44.410Z,40.80
2018-06-23T13:32:12.613Z,40.20
2018-06-23T13:34:40.803Z,39.70
2018-06-23T13:37:08.994Z,40.10
2018-06-23T13:39:37.237Z,40.10
2018-06-23T13:42:05.387Z,40.50
2018-06-23T13:44:33.539Z,40.70
2018-06-23T13:47:01.723Z,41.60
2018-06-23T13:49:29.895Z,40.90
2018-06-23T13:51:58.209Z,40.80
2018-06-23T13:54:26.732Z,41.10
2018-06-23T13:56:54.880Z,40.80
2018-06-23T13:59:23.179Z,39.60
2018-06-23T14:01:51.308Z,39.80
2018-06-23T14:04:19.481Z,39.80
2018-06-23T14:06:47.655Z,39.80
2018-06-23T14:09:15.802Z,40.00
2018-06-23T14:11:43.945Z,38.40
2018-06-23T14:14:12.079Z,37.30
2018-06-23T14:16:40.224Z,37.40
2018-06-23T14:19:08.397Z,38.10
2018-06-23T14:21:36.801Z,38.00
2018-06-23T14:24:04.926Z,37.70
2018-06-23T14:26:33.054Z,38.40
2018-06-23T14:29:01.667Z,38.00
2018-06-23T14:31:29.989Z,39.20
2018-06-23T14:33:57.997Z,39.30
2018-06-23T14:36:26.140Z,39.30
2018-06-23T14:38:54.280Z,38.50
2018-06-23T14:41:22.416Z,39.20
2018-06-23T14:43:50.584Z,38.30
2018-06-23T14:46:18.743Z,38.60
2018-06-23T14:48:46.900Z,39.00
2018-06-23T14:51:15.052Z,38.70
2018-06-23T14:53:43.208Z,38.80
2018-06-23T14:56:11.384Z,39.50
2018-06-23T14:58:39.523Z,39.00
2018-06-23T15:01:07.700Z,38.60
2018-06-23T15:03:35.908Z,37.80
2018-06-23T15:06:06.095Z,37.10
2018-06-23T15:08:45.775Z,37.90
2018-06-23T15:11:25.343Z,38.30
2018-06-23T15:13:53.516Z,37.70
2018-06-23T15:16:21.736Z,37.00
2018-06-23T15:18:49.912Z,38.00
2018-06-23T15:21:18.069Z,37.90
2018-06-23T15:23:46.262Z,37.90
2018-06-23T15:26:14.480Z,38.40
2018-06-23T15:28:43.041Z,38.50
2018-06-23T15:31:11.217Z,39.40
2018-06-23T15:33:39.451Z,39.70
2018-06-23T15:36:07.561Z,39.40
2018-06-23T15:38:35.703Z,40.00
2018-06-23T15:41:05.388Z,40.10
2018-06-23T15:43:33.616Z,40.00
2018-06-23T15:46:01.988Z,40.00
2018-06-23T15:48:30.140Z,40.20
2018-06-23T15:50:58.394Z,40.10
2018-06-23T15:53:26.547Z,40.20
2018-06-23T15:55:54.722Z,40.30
2018-06-23T15:58:22.855Z,40.20
2018-06-23T16:00:51.054Z,38.80
2018-06-23T16:03:19.326Z,38.70
2018-06-23T16:05:47.489Z,37.70
2018-06-23T16:08:15.611Z,38.70
2018-06-23T16:10:43.756Z,38.70
2018-06-23T16:13:11.876Z,38.00
2018-06-23T16:15:40.016Z,38.80
2018-06-23T16:18:08.176Z,38.80
2018-06-23T16:20:36.323Z,38.90
2018-06-23T16:23:04.511Z,38.90
2018-06-23T16:25:32.607Z,38.10
2018-06-23T16:28:00.786Z,39.10
2018-06-23T16:30:28.904Z,38.60
2018-06-23T16:32:57.095Z,38.40
2018-06-23T16:35:25.640Z,39.20
2018-06-23T16:37:53.405Z,39.20
2018-06-23T16:42:49.495Z,39.50
2018-06-23T16:45:17.629Z,39.50
2018-06-23T16:47:45.860Z,39.00
2018-06-23T16:50:14.047Z,39.10
2018-06-23T16:52:42.187Z,39.60
2018-06-23T16:55:10.348Z,39.80
2018-06-23T16:57:38.432Z,40.10
2018-06-23T17:00:06.542Z,40.40
2018-06-23T17:02:34.636Z,40.20
2018-06-23T17:05:02.756Z,40.00
2018-06-23T17:07:30.832Z,40.30
2018-06-23T17:09:58.907Z,40.10
2018-06-23T17:12:27.103Z,40.30
2018-06-23T17:17:23.114Z,40.00
2018-06-23T17:19:51.216Z,39.50
2018-06-23T17:22:19.440Z,39.80
2018-06-23T17:24:47.512Z,40.00
2018-06-23T17:27:15.660Z,40.20
2018-06-23T17:29:43.683Z,40.20
2018-06-23T17:32:11.788Z,40.20
2018-06-23T17:34:39.893Z,40.30
2018-06-23T17:37:07.999Z,41.00
2018-06-23T17:39:36.123Z,41.10
2018-06-23T17:42:04.224Z,41.30
2018-06-23T17:44:32.369Z,41.60
2018-06-23T17:47:00.487Z,41.90
2018-06-23T17:49:28.584Z,41.80
2018-06-23T17:51:56.684Z,41.90
2018-06-23T17:54:24.768Z,42.30
2018-06-23T17:56:52.856Z,42.20
2018-06-23T17:59:20.956Z,42.40
2018-06-23T18:01:49.060Z,43.20
2018-06-23T18:04:17.189Z,43.10
2018-06-23T18:06:45.303Z,43.50
2018-06-23T18:09:13.415Z,43.40
2018-06-23T18:11:41.531Z,43.30
2018-06-23T18:14:10.069Z,43.40
2018-06-23T18:16:38.271Z,43.30
2018-06-23T18:19:06.843Z,43.40
2018-06-23T18:21:34.952Z,43.50
2018-06-23T18:24:03.048Z,43.60
2018-06-23T18:26:31.208Z,44.20
2018-06-23T18:28:59.383Z,44.30
2018-06-23T18:31:27.492Z,44.60
2018-06-23T18:33:55.591Z,44.60
2018-06-23T18:36:23.690Z,44.90
2018-06-23T18:38:51.801Z,44.70
2018-06-23T18:41:19.929Z,44.90
2018-06-23T18:43:48.023Z,45.10
2018-06-23T18:46:16.122Z,45.50
2018-06-23T18:48:44.225Z,45.60
2018-06-23T18:51:12.320Z,45.90
2018-06-23T18:53:40.430Z,45.90
2018-06-23T18:56:08.531Z,46.10
2018-06-23T18:58:36.631Z,46.90
2018-06-23T19:01:04.746Z,46.60
2018-06-23T19:03:32.865Z,47.00
2018-06-23T19:06:00.952Z,46.60
2018-06-23T19:08:29.051Z,46.80
2018-06-23T19:10:57.179Z,46.90
2018-06-23T19:13:25.287Z,46.90
2018-06-23T19:15:53.372Z,46.90
2018-06-23T19:18:21.523Z,47.20
2018-06-23T19:20:49.614Z,47.00
2018-06-23T19:23:17.702Z,47.10
2018-06-23T19:25:45.784Z,47.10
2018-06-23T19:28:13.904Z,47.10
2018-06-23T19:30:42.027Z,47.30
2018-06-23T19:33:10.139Z,47.10
2018-06-23T19:35:38.302Z,47.30
2018-06-23T19:38:06.377Z,47.60
2018-06-23T19:40:34.516Z,47.60
2018-06-23T19:43:02.643Z,48.20
2018-06-23T19:45:30.767Z,47.60
2018-06-23T19:47:58.871Z,48.20
2018-06-23T19:50:26.972Z,47.90
2018-06-23T19:52:55.063Z,48.00
2018-06-23T19:55:23.187Z,48.10
2018-06-23T20:00:19.199Z,48.20
2018-06-23T20:02:47.287Z,48.20
2018-06-23T20:05:15.377Z,48.30
2018-06-23T20:07:43.491Z,48.50
2018-06-23T20:10:11.604Z,48.40
2018-06-23T20:12:39.739Z,48.80
2018-06-23T20:15:07.895Z,48.50
2018-06-23T20:17:35.993Z,48.70
2018-06-23T20:20:04.099Z,48.70
2018-06-23T20:22:32.220Z,48.90
2018-06-23T20:25:00.335Z,48.80
2018-06-23T20:27:28.446Z,48.80
2018-06-23T20:29:56.928Z,49.00
2018-06-23T20:32:25.020Z,49.20
2018-06-23T20:34:53.188Z,49.30
2018-06-23T20:37:21.320Z,49.30
2018-06-23T20:39:49.439Z,49.30
2018-06-23T20:42:17.528Z,49.40
2018-06-23T20:44:45.628Z,49.60
2018-06-23T20:47:13.752Z,49.60
2018-06-23T20:49:41.864Z,49.60
2018-06-23T20:52:09.960Z,49.90
2018-06-23T20:54:38.182Z,50.20
2018-06-23T20:57:06.267Z,50.10
2018-06-23T20:59:34.865Z,50.10
2018-06-23T21:02:02.955Z,50.00
2018-06-23T21:07:05.870Z,50.00
2018-06-23T21:09:34.012Z,50.00
2018-06-23T21:12:02.090Z,50.10
2018-06-23T21:14:30.220Z,50.20
2018-06-23T21:16:58.332Z,50.00
2018-06-23T21:19:26.405Z,50.10
2018-06-23T21:21:54.491Z,50.40
2018-06-23T21:24:22.583Z,50.60
2018-06-23T21:26:50.704Z,50.70
2018-06-23T21:29:18.795Z,50.70
2018-06-23T21:31:46.992Z,50.80
2018-06-23T21:34:15.103Z,50.90
2018-06-23T21:36:43.180Z,51.00
2018-06-23T21:39:11.378Z,51.10
2018-06-23T21:41:39.512Z,51.10
2018-06-23T21:44:07.855Z,51.30
2018-06-23T21:46:36.337Z,51.40
2018-06-23T21:49:04.627Z,51.50
2018-06-23T21:51:32.744Z,51.90
2018-06-23T21:54:00.847Z,51.50
2018-06-23T21:56:28.957Z,52.30
2018-06-23T21:58:57.066Z,51.60
2018-06-23T22:01:25.135Z,51.70
2018-06-23T22:03:53.232Z,52.00
2018-06-23T22:06:21.349Z,52.00
2018-06-23T22:08:49.471Z,52.00
2018-06-23T22:11:17.576Z,52.60
2018-06-23T22:13:45.691Z,51.80
2018-06-23T22:16:13.776Z,52.10
2018-06-23T22:18:41.868Z,52.00
2018-06-23T22:21:09.956Z,52.00
2018-06-23T22:23:38.092Z,52.10
2018-06-23T22:26:06.195Z,52.10
2018-06-23T22:28:34.315Z,52.30
2018-06-23T22:31:02.412Z,52.60
2018-06-23T22:33:30.548Z,52.60
2018-06-23T22:35:58.636Z,52.80
2018-06-23T22:38:26.807Z,52.80
2018-06-23T22:40:54.933Z,52.90
2018-06-23T22:43:23.040Z,53.00
2018-06-23T22:45:51.133Z,53.20
2018-06-23T22:48:19.212Z,53.10
2018-06-23T22:50:48.177Z,53.10
2018-06-23T22:53:16.311Z,53.00
2018-06-23T22:55:44.560Z,53.30
2018-06-23T22:58:12.764Z,53.30
2018-06-23T23:00:40.926Z,53.40
2018-06-23T23:03:09.065Z,53.30
2018-06-23T23:05:37.225Z,53.00
2018-06-23T23:08:05.455Z,53.50
2018-06-23T23:10:33.588Z,53.40
2018-06-23T23:13:01.740Z,53.50
2018-06-23T23:15:29.873Z,53.70
2018-06-23T23:17:57.996Z,53.60
2018-06-23T23:20:26.168Z,53.60
2018-06-23T23:22:54.318Z,53.70
2018-06-23T23:25:22.473Z,53.80
2018-06-23T23:27:50.698Z,54.00
2018-06-23T23:30:18.879Z,54.00
2018-06-23T23:32:47.023Z,54.10
2018-06-23T23:35:15.182Z,54.20
2018-06-23T23:37:43.308Z,54.10
2018-06-23T23:40:11.443Z,54.40
2018-06-23T23:42:39.629Z,54.40
2018-06-23T23:45:07.767Z,54.50
2018-06-23T23:47:35.928Z,54.60
2018-06-23T23:50:04.427Z,54.70
2018-06-23T23:52:32.577Z,54.80
2018-06-23T23:55:00.691Z,54.70
2018-06-23T23:57:28.788Z,54.80
2018-06-23T23:59:56.933Z,54.90
